sensor_id;sensor_type;location;lat;lon;timestamp;P1;durP1;ratioP1;P2;durP2;ratioP2
24467;SDS011;12634;50.852;5.676;2023-02-28T00:01:08;7.70;;;3.67;;
24467;SDS011;12634;50.852;5.676;2023-02-28T00:03:35;8.10;;;3.75;;
24467;SDS011;12634;50.852;5.676;2023-02-28T00:06:02;5.78;;;3.47;;
24467;SDS011;12634;50.852;5.676;2023-02-28T00:08:30;7.47;;;3.88;;
24467;SDS011;12634;50.852;5.676;2023-02-28T00:11:00;7.20;;;3.70;;
24467;SDS011;12634;50.852;5.676;2023-02-28T00:13:30;6.78;;;3.47;;
24467;SDS011;12634;50.852;5.676;2023-02-28T00:15:58;6.20;;;3.88;;
24467;SDS011;12634;50.852;5.676;2023-02-28T00:18:26;8.80;;;3.97;;
24467;SDS011;12634;50.852;5.676;2023-02-28T00:20:53;7.40;;;3.53;;
24467;SDS011;12634;50.852;5.676;2023-02-28T00:23:21;7.78;;;3.53;;
24467;SDS011;12634;50.852;5.676;2023-02-28T00:25:48;7.70;;;3.78;;
24467;SDS011;12634;50.852;5.676;2023-02-28T00:28:16;7.78;;;3.70;;
24467;SDS011;12634;50.852;5.676;2023-02-28T00:30:44;6.30;;;3.55;;
24467;SDS011;12634;50.852;5.676;2023-02-28T00:33:11;7.78;;;3.88;;
24467;SDS011;12634;50.852;5.676;2023-02-28T00:35:39;9.57;;;4.53;;
24467;SDS011;12634;50.852;5.676;2023-02-28T00:38:06;7.72;;;4.28;;
24467;SDS011;12634;50.852;5.676;2023-02-28T00:40:34;8.23;;;4.47;;
24467;SDS011;12634;50.852;5.676;2023-02-28T00:43:01;9.10;;;4.82;;
24467;SDS011;12634;50.852;5.676;2023-02-28T00:45:29;13.18;;;4.32;;
24467;SDS011;12634;50.852;5.676;2023-02-28T00:47:57;9.05;;;4.60;;
24467;SDS011;12634;50.852;5.676;2023-02-28T00:50:25;8.43;;;4.85;;
24467;SDS011;12634;50.852;5.676;2023-02-28T00:52:52;8.20;;;5.10;;
24467;SDS011;12634;50.852;5.676;2023-02-28T00:55:19;8.07;;;4.30;;
24467;SDS011;12634;50.852;5.676;2023-02-28T00:57:46;10.50;;;5.25;;
24467;SDS011;12634;50.852;5.676;2023-02-28T01:00:13;9.00;;;5.03;;
24467;SDS011;12634;50.852;5.676;2023-02-28T01:02:41;7.32;;;4.53;;
24467;SDS011;12634;50.852;5.676;2023-02-28T01:05:10;8.40;;;4.97;;
24467;SDS011;12634;50.852;5.676;2023-02-28T01:07:37;6.25;;;4.43;;
24467;SDS011;12634;50.852;5.676;2023-02-28T01:10:04;10.13;;;5.60;;
24467;SDS011;12634;50.852;5.676;2023-02-28T01:12:32;6.72;;;4.05;;
24467;SDS011;12634;50.852;5.676;2023-02-28T01:14:59;11.80;;;5.40;;
24467;SDS011;12634;50.852;5.676;2023-02-28T01:17:26;10.10;;;5.95;;
24467;SDS011;12634;50.852;5.676;2023-02-28T01:19:54;9.18;;;5.85;;
24467;SDS011;12634;50.852;5.676;2023-02-28T01:22:22;9.60;;;5.60;;
24467;SDS011;12634;50.852;5.676;2023-02-28T01:24:50;10.52;;;6.05;;
24467;SDS011;12634;50.852;5.676;2023-02-28T01:27:17;8.73;;;5.13;;
24467;SDS011;12634;50.852;5.676;2023-02-28T01:29:44;9.07;;;5.65;;
24467;SDS011;12634;50.852;5.676;2023-02-28T01:32:11;7.57;;;5.43;;
24467;SDS011;12634;50.852;5.676;2023-02-28T01:34:38;8.45;;;4.90;;
24467;SDS011;12634;50.852;5.676;2023-02-28T01:37:06;8.95;;;5.10;;
24467;SDS011;12634;50.852;5.676;2023-02-28T01:39:34;7.63;;;4.88;;
24467;SDS011;12634;50.852;5.676;2023-02-28T01:42:01;12.10;;;5.07;;
24467;SDS011;12634;50.852;5.676;2023-02-28T01:47:23;7.15;;;4.15;;
24467;SDS011;12634;50.852;5.676;2023-02-28T01:49:53;10.15;;;4.60;;
24467;SDS011;12634;50.852;5.676;2023-02-28T01:52:20;8.35;;;3.97;;
24467;SDS011;12634;50.852;5.676;2023-02-28T01:54:52;8.52;;;4.22;;
24467;SDS011;12634;50.852;5.676;2023-02-28T01:57:23;6.78;;;4.25;;
24467;SDS011;12634;50.852;5.676;2023-02-28T01:59:54;8.60;;;4.97;;
24467;SDS011;12634;50.852;5.676;2023-02-28T02:02:25;10.40;;;5.13;;
24467;SDS011;12634;50.852;5.676;2023-02-28T02:04:54;6.43;;;4.32;;
24467;SDS011;12634;50.852;5.676;2023-02-28T02:07:23;5.70;;;3.75;;
24467;SDS011;12634;50.852;5.676;2023-02-28T02:10:00;10.52;;;4.22;;
24467;SDS011;12634;50.852;5.676;2023-02-28T02:12:33;6.45;;;4.05;;
24467;SDS011;12634;50.852;5.676;2023-02-28T02:15:11;7.00;;;4.05;;
24467;SDS011;12634;50.852;5.676;2023-02-28T02:17:42;9.05;;;4.10;;
24467;SDS011;12634;50.852;5.676;2023-02-28T02:23:08;6.15;;;3.95;;
24467;SDS011;12634;50.852;5.676;2023-02-28T02:26:26;9.57;;;3.88;;
24467;SDS011;12634;50.852;5.676;2023-02-28T02:35:40;5.47;;;3.60;;
24467;SDS011;12634;50.852;5.676;2023-02-28T02:38:13;6.65;;;3.45;;
24467;SDS011;12634;50.852;5.676;2023-02-28T02:40:47;8.82;;;3.60;;
24467;SDS011;12634;50.852;5.676;2023-02-28T02:43:22;6.05;;;3.85;;
24467;SDS011;12634;50.852;5.676;2023-02-28T02:45:56;6.03;;;3.65;;
24467;SDS011;12634;50.852;5.676;2023-02-28T02:48:26;8.57;;;4.13;;
24467;SDS011;12634;50.852;5.676;2023-02-28T02:50:59;6.13;;;3.67;;
24467;SDS011;12634;50.852;5.676;2023-02-28T02:53:30;5.80;;;3.77;;
24467;SDS011;12634;50.852;5.676;2023-02-28T02:56:02;7.07;;;3.88;;
24467;SDS011;12634;50.852;5.676;2023-02-28T02:58:33;8.65;;;4.50;;
24467;SDS011;12634;50.852;5.676;2023-02-28T03:01:07;6.63;;;4.28;;
24467;SDS011;12634;50.852;5.676;2023-02-28T03:03:37;6.00;;;3.78;;
24467;SDS011;12634;50.852;5.676;2023-02-28T03:06:06;6.68;;;3.90;;
24467;SDS011;12634;50.852;5.676;2023-02-28T03:08:34;11.40;;;4.03;;
24467;SDS011;12634;50.852;5.676;2023-02-28T03:11:03;7.40;;;3.90;;
24467;SDS011;12634;50.852;5.676;2023-02-28T03:16:42;7.35;;;4.47;;
24467;SDS011;12634;50.852;5.676;2023-02-28T03:19:43;5.88;;;4.00;;
24467;SDS011;12634;50.852;5.676;2023-02-28T03:22:23;7.68;;;4.00;;
24467;SDS011;12634;50.852;5.676;2023-02-28T03:25:05;10.07;;;4.15;;
24467;SDS011;12634;50.852;5.676;2023-02-28T03:27:36;5.95;;;4.25;;
24467;SDS011;12634;50.852;5.676;2023-02-28T03:30:09;8.68;;;4.78;;
24467;SDS011;12634;50.852;5.676;2023-02-28T03:32:42;8.50;;;5.30;;
24467;SDS011;12634;50.852;5.676;2023-02-28T03:35:19;9.50;;;5.03;;
24467;SDS011;12634;50.852;5.676;2023-02-28T03:37:52;9.75;;;6.13;;
24467;SDS011;12634;50.852;5.676;2023-02-28T03:40:23;11.30;;;4.80;;
24467;SDS011;12634;50.852;5.676;2023-02-28T03:42:57;10.27;;;4.75;;
24467;SDS011;12634;50.852;5.676;2023-02-28T03:45:28;11.88;;;5.32;;
24467;SDS011;12634;50.852;5.676;2023-02-28T03:48:00;8.98;;;4.70;;
24467;SDS011;12634;50.852;5.676;2023-02-28T03:50:32;7.43;;;4.18;;
24467;SDS011;12634;50.852;5.676;2023-02-28T03:53:06;9.88;;;5.07;;
24467;SDS011;12634;50.852;5.676;2023-02-28T03:55:37;9.68;;;5.00;;
24467;SDS011;12634;50.852;5.676;2023-02-28T03:58:11;8.38;;;5.05;;
24467;SDS011;12634;50.852;5.676;2023-02-28T04:00:43;9.85;;;4.70;;
24467;SDS011;12634;50.852;5.676;2023-02-28T04:03:13;8.43;;;4.72;;
24467;SDS011;12634;50.852;5.676;2023-02-28T04:05:46;10.13;;;5.05;;
24467;SDS011;12634;50.852;5.676;2023-02-28T04:08:17;7.45;;;4.57;;
24467;SDS011;12634;50.852;5.676;2023-02-28T04:10:45;6.03;;;4.22;;
24467;SDS011;12634;50.852;5.676;2023-02-28T04:13:17;6.78;;;4.70;;
24467;SDS011;12634;50.852;5.676;2023-02-28T04:15:44;10.77;;;4.20;;
24467;SDS011;12634;50.852;5.676;2023-02-28T04:18:11;7.10;;;4.43;;
24467;SDS011;12634;50.852;5.676;2023-02-28T04:20:39;6.85;;;4.47;;
24467;SDS011;12634;50.852;5.676;2023-02-28T04:23:06;8.57;;;5.13;;
24467;SDS011;12634;50.852;5.676;2023-02-28T04:25:34;10.20;;;4.90;;
24467;SDS011;12634;50.852;5.676;2023-02-28T04:28:01;9.18;;;4.70;;
24467;SDS011;12634;50.852;5.676;2023-02-28T04:30:29;8.45;;;4.30;;
24467;SDS011;12634;50.852;5.676;2023-02-28T04:32:57;10.25;;;4.95;;
24467;SDS011;12634;50.852;5.676;2023-02-28T04:35:24;9.00;;;5.28;;
24467;SDS011;12634;50.852;5.676;2023-02-28T04:37:52;8.52;;;5.13;;
24467;SDS011;12634;50.852;5.676;2023-02-28T04:40:19;6.53;;;4.60;;
24467;SDS011;12634;50.852;5.676;2023-02-28T04:42:47;7.43;;;4.63;;
24467;SDS011;12634;50.852;5.676;2023-02-28T04:45:14;8.50;;;4.72;;
24467;SDS011;12634;50.852;5.676;2023-02-28T04:47:42;8.45;;;4.85;;
24467;SDS011;12634;50.852;5.676;2023-02-28T04:50:09;8.75;;;5.03;;
24467;SDS011;12634;50.852;5.676;2023-02-28T04:52:37;9.45;;;5.53;;
24467;SDS011;12634;50.852;5.676;2023-02-28T04:55:04;7.97;;;5.00;;
24467;SDS011;12634;50.852;5.676;2023-02-28T04:57:32;9.45;;;5.10;;
24467;SDS011;12634;50.852;5.676;2023-02-28T05:00:00;7.65;;;4.78;;
24467;SDS011;12634;50.852;5.676;2023-02-28T05:02:30;7.78;;;5.18;;
24467;SDS011;12634;50.852;5.676;2023-02-28T05:05:01;9.65;;;5.32;;
24467;SDS011;12634;50.852;5.676;2023-02-28T05:07:28;8.80;;;5.15;;
24467;SDS011;12634;50.852;5.676;2023-02-28T05:09:55;11.93;;;5.65;;
24467;SDS011;12634;50.852;5.676;2023-02-28T05:12:22;7.82;;;4.97;;
24467;SDS011;12634;50.852;5.676;2023-02-28T05:14:49;7.32;;;5.63;;
24467;SDS011;12634;50.852;5.676;2023-02-28T05:17:18;10.02;;;5.95;;
24467;SDS011;12634;50.852;5.676;2023-02-28T05:19:45;14.45;;;6.13;;
24467;SDS011;12634;50.852;5.676;2023-02-28T05:22:13;11.05;;;6.03;;
24467;SDS011;12634;50.852;5.676;2023-02-28T05:24:42;8.65;;;5.53;;
24467;SDS011;12634;50.852;5.676;2023-02-28T05:27:09;10.88;;;6.25;;
24467;SDS011;12634;50.852;5.676;2023-02-28T05:29:36;10.55;;;6.03;;
24467;SDS011;12634;50.852;5.676;2023-02-28T05:32:08;11.00;;;6.45;;
24467;SDS011;12634;50.852;5.676;2023-02-28T05:34:38;10.93;;;6.10;;
24467;SDS011;12634;50.852;5.676;2023-02-28T05:37:05;12.98;;;6.88;;
24467;SDS011;12634;50.852;5.676;2023-02-28T05:39:33;10.90;;;6.93;;
24467;SDS011;12634;50.852;5.676;2023-02-28T05:42:00;10.95;;;6.55;;
24467;SDS011;12634;50.852;5.676;2023-02-28T05:44:27;11.05;;;6.63;;
24467;SDS011;12634;50.852;5.676;2023-02-28T05:46:54;12.77;;;6.60;;
24467;SDS011;12634;50.852;5.676;2023-02-28T05:49:21;9.23;;;6.38;;
24467;SDS011;12634;50.852;5.676;2023-02-28T05:51:50;9.75;;;6.38;;
24467;SDS011;12634;50.852;5.676;2023-02-28T05:54:17;8.77;;;5.47;;
24467;SDS011;12634;50.852;5.676;2023-02-28T05:56:44;9.98;;;6.40;;
24467;SDS011;12634;50.852;5.676;2023-02-28T05:59:11;9.82;;;5.63;;
24467;SDS011;12634;50.852;5.676;2023-02-28T06:01:40;11.60;;;6.40;;
24467;SDS011;12634;50.852;5.676;2023-02-28T06:04:13;10.13;;;5.70;;
24467;SDS011;12634;50.852;5.676;2023-02-28T06:06:44;17.08;;;6.63;;
24467;SDS011;12634;50.852;5.676;2023-02-28T06:09:12;11.25;;;6.32;;
24467;SDS011;12634;50.852;5.676;2023-02-28T06:11:40;10.20;;;5.85;;
24467;SDS011;12634;50.852;5.676;2023-02-28T06:14:09;10.38;;;6.88;;
24467;SDS011;12634;50.852;5.676;2023-02-28T06:16:41;11.18;;;6.32;;
24467;SDS011;12634;50.852;5.676;2023-02-28T06:19:08;11.50;;;6.97;;
24467;SDS011;12634;50.852;5.676;2023-02-28T06:21:36;13.40;;;6.57;;
24467;SDS011;12634;50.852;5.676;2023-02-28T06:24:03;9.85;;;6.70;;
24467;SDS011;12634;50.852;5.676;2023-02-28T06:26:33;10.43;;;6.55;;
24467;SDS011;12634;50.852;5.676;2023-02-28T06:29:00;8.90;;;5.93;;
24467;SDS011;12634;50.852;5.676;2023-02-28T06:31:28;9.25;;;5.55;;
24467;SDS011;12634;50.852;5.676;2023-02-28T06:33:55;8.98;;;5.78;;
24467;SDS011;12634;50.852;5.676;2023-02-28T06:36:22;10.65;;;5.85;;
24467;SDS011;12634;50.852;5.676;2023-02-28T06:38:49;8.95;;;5.72;;
24467;SDS011;12634;50.852;5.676;2023-02-28T06:41:20;9.20;;;5.32;;
24467;SDS011;12634;50.852;5.676;2023-02-28T06:43:49;10.20;;;5.40;;
24467;SDS011;12634;50.852;5.676;2023-02-28T06:46:17;7.75;;;5.47;;
24467;SDS011;12634;50.852;5.676;2023-02-28T06:48:44;11.75;;;6.20;;
24467;SDS011;12634;50.852;5.676;2023-02-28T06:51:12;13.55;;;5.32;;
24467;SDS011;12634;50.852;5.676;2023-02-28T06:53:41;10.70;;;5.60;;
24467;SDS011;12634;50.852;5.676;2023-02-28T06:56:09;10.80;;;5.38;;
24467;SDS011;12634;50.852;5.676;2023-02-28T06:58:37;9.60;;;5.40;;
24467;SDS011;12634;50.852;5.676;2023-02-28T07:01:07;10.25;;;5.60;;
24467;SDS011;12634;50.852;5.676;2023-02-28T07:03:35;9.07;;;4.75;;
24467;SDS011;12634;50.852;5.676;2023-02-28T07:06:04;9.63;;;4.55;;
24467;SDS011;12634;50.852;5.676;2023-02-28T07:08:32;6.85;;;4.43;;
24467;SDS011;12634;50.852;5.676;2023-02-28T07:11:00;6.70;;;3.90;;
24467;SDS011;12634;50.852;5.676;2023-02-28T07:13:27;7.93;;;3.97;;
24467;SDS011;12634;50.852;5.676;2023-02-28T07:15:55;8.70;;;3.90;;
24467;SDS011;12634;50.852;5.676;2023-02-28T07:18:24;6.57;;;3.28;;
24467;SDS011;12634;50.852;5.676;2023-02-28T07:20:52;8.60;;;3.53;;
24467;SDS011;12634;50.852;5.676;2023-02-28T07:23:20;6.80;;;3.50;;
24467;SDS011;12634;50.852;5.676;2023-02-28T07:25:47;8.55;;;3.22;;
24467;SDS011;12634;50.852;5.676;2023-02-28T07:28:15;8.07;;;3.50;;
24467;SDS011;12634;50.852;5.676;2023-02-28T07:30:42;10.20;;;3.30;;
24467;SDS011;12634;50.852;5.676;2023-02-28T07:33:10;5.80;;;3.30;;
24467;SDS011;12634;50.852;5.676;2023-02-28T07:35:38;6.20;;;3.15;;
24467;SDS011;12634;50.852;5.676;2023-02-28T07:38:06;5.57;;;3.20;;
24467;SDS011;12634;50.852;5.676;2023-02-28T07:40:34;6.95;;;3.30;;
24467;SDS011;12634;50.852;5.676;2023-02-28T07:43:01;11.48;;;3.40;;
24467;SDS011;12634;50.852;5.676;2023-02-28T07:45:29;5.32;;;3.20;;
24467;SDS011;12634;50.852;5.676;2023-02-28T07:47:59;7.28;;;3.28;;
24467;SDS011;12634;50.852;5.676;2023-02-28T07:50:27;5.65;;;2.95;;
24467;SDS011;12634;50.852;5.676;2023-02-28T07:52:57;6.55;;;2.80;;
24467;SDS011;12634;50.852;5.676;2023-02-28T07:55:25;6.18;;;2.85;;
24467;SDS011;12634;50.852;5.676;2023-02-28T07:57:52;6.03;;;3.05;;
24467;SDS011;12634;50.852;5.676;2023-02-28T08:00:20;7.13;;;3.17;;
24467;SDS011;12634;50.852;5.676;2023-02-28T08:02:48;5.68;;;3.10;;
24467;SDS011;12634;50.852;5.676;2023-02-28T08:05:15;5.00;;;2.75;;
24467;SDS011;12634;50.852;5.676;2023-02-28T08:07:42;7.32;;;3.45;;
24467;SDS011;12634;50.852;5.676;2023-02-28T08:10:11;6.53;;;3.20;;
24467;SDS011;12634;50.852;5.676;2023-02-28T08:12:38;6.40;;;2.75;;
24467;SDS011;12634;50.852;5.676;2023-02-28T08:15:06;5.90;;;2.67;;
24467;SDS011;12634;50.852;5.676;2023-02-28T08:17:34;4.68;;;2.60;;
24467;SDS011;12634;50.852;5.676;2023-02-28T08:20:01;9.30;;;2.80;;
24467;SDS011;12634;50.852;5.676;2023-02-28T08:22:29;6.78;;;2.42;;
24467;SDS011;12634;50.852;5.676;2023-02-28T08:24:56;4.80;;;2.63;;
24467;SDS011;12634;50.852;5.676;2023-02-28T08:27:24;6.45;;;2.70;;
24467;SDS011;12634;50.852;5.676;2023-02-28T08:29:51;4.85;;;2.60;;
24467;SDS011;12634;50.852;5.676;2023-02-28T08:32:19;4.97;;;2.85;;
24467;SDS011;12634;50.852;5.676;2023-02-28T08:34:46;4.60;;;2.50;;
24467;SDS011;12634;50.852;5.676;2023-02-28T08:37:13;6.85;;;2.92;;
24467;SDS011;12634;50.852;5.676;2023-02-28T08:39:40;5.95;;;2.60;;
24467;SDS011;12634;50.852;5.676;2023-02-28T08:42:07;6.55;;;2.10;;
24467;SDS011;12634;50.852;5.676;2023-02-28T08:44:36;4.78;;;2.28;;
24467;SDS011;12634;50.852;5.676;2023-02-28T08:47:03;4.32;;;2.10;;
24467;SDS011;12634;50.852;5.676;2023-02-28T08:49:30;5.05;;;2.53;;
24467;SDS011;12634;50.852;5.676;2023-02-28T08:51:57;6.55;;;2.25;;
24467;SDS011;12634;50.852;5.676;2023-02-28T08:54:24;5.15;;;2.20;;
24467;SDS011;12634;50.852;5.676;2023-02-28T08:56:54;3.80;;;2.10;;
24467;SDS011;12634;50.852;5.676;2023-02-28T08:59:21;4.63;;;2.13;;
24467;SDS011;12634;50.852;5.676;2023-02-28T09:01:49;4.55;;;2.50;;
24467;SDS011;12634;50.852;5.676;2023-02-28T09:04:16;4.40;;;2.30;;
24467;SDS011;12634;50.852;5.676;2023-02-28T09:06:44;5.15;;;2.10;;
24467;SDS011;12634;50.852;5.676;2023-02-28T09:09:11;5.15;;;2.35;;
24467;SDS011;12634;50.852;5.676;2023-02-28T09:11:38;5.07;;;2.50;;
24467;SDS011;12634;50.852;5.676;2023-02-28T09:14:05;3.80;;;2.03;;
24467;SDS011;12634;50.852;5.676;2023-02-28T09:16:33;4.53;;;2.13;;
24467;SDS011;12634;50.852;5.676;2023-02-28T09:19:02;5.07;;;2.10;;
24467;SDS011;12634;50.852;5.676;2023-02-28T09:21:29;4.28;;;2.00;;
24467;SDS011;12634;50.852;5.676;2023-02-28T09:23:56;3.10;;;1.92;;
24467;SDS011;12634;50.852;5.676;2023-02-28T09:26:24;5.10;;;2.00;;
24467;SDS011;12634;50.852;5.676;2023-02-28T09:28:52;2.85;;;1.80;;
24467;SDS011;12634;50.852;5.676;2023-02-28T09:31:21;4.63;;;2.08;;
24467;SDS011;12634;50.852;5.676;2023-02-28T09:33:50;3.75;;;1.70;;
24467;SDS011;12634;50.852;5.676;2023-02-28T09:36:21;2.75;;;1.70;;
24467;SDS011;12634;50.852;5.676;2023-02-28T09:38:49;6.10;;;1.95;;
24467;SDS011;12634;50.852;5.676;2023-02-28T09:41:19;2.92;;;1.67;;
24467;SDS011;12634;50.852;5.676;2023-02-28T09:43:49;3.20;;;2.00;;
24467;SDS011;12634;50.852;5.676;2023-02-28T09:46:27;4.82;;;2.50;;
24467;SDS011;12634;50.852;5.676;2023-02-28T09:48:57;3.17;;;1.70;;
24467;SDS011;12634;50.852;5.676;2023-02-28T09:51:33;4.68;;;1.70;;
24467;SDS011;12634;50.852;5.676;2023-02-28T09:54:08;3.35;;;1.70;;
24467;SDS011;12634;50.852;5.676;2023-02-28T09:56:39;4.07;;;1.63;;
24467;SDS011;12634;50.852;5.676;2023-02-28T09:59:10;3.22;;;1.77;;
24467;SDS011;12634;50.852;5.676;2023-02-28T10:01:50;3.50;;;1.58;;
24467;SDS011;12634;50.852;5.676;2023-02-28T10:04:27;7.90;;;1.92;;
24467;SDS011;12634;50.852;5.676;2023-02-28T10:07:07;4.47;;;1.80;;
24467;SDS011;12634;50.852;5.676;2023-02-28T10:09:45;3.80;;;2.00;;
24467;SDS011;12634;50.852;5.676;2023-02-28T10:12:17;3.45;;;1.90;;
24467;SDS011;12634;50.852;5.676;2023-02-28T10:14:46;2.90;;;1.60;;
24467;SDS011;12634;50.852;5.676;2023-02-28T10:17:17;3.35;;;1.48;;
24467;SDS011;12634;50.852;5.676;2023-02-28T10:19:50;2.95;;;1.50;;
24467;SDS011;12634;50.852;5.676;2023-02-28T10:22:27;2.53;;;1.50;;
24467;SDS011;12634;50.852;5.676;2023-02-28T10:25:00;2.40;;;1.60;;
24467;SDS011;12634;50.852;5.676;2023-02-28T10:27:31;3.40;;;1.42;;
24467;SDS011;12634;50.852;5.676;2023-02-28T10:30:00;3.95;;;1.40;;
24467;SDS011;12634;50.852;5.676;2023-02-28T10:32:29;2.85;;;1.65;;
24467;SDS011;12634;50.852;5.676;2023-02-28T10:35:00;3.60;;;1.40;;
24467;SDS011;12634;50.852;5.676;2023-02-28T10:37:38;4.45;;;1.42;;
24467;SDS011;12634;50.852;5.676;2023-02-28T10:40:07;2.63;;;1.70;;
24467;SDS011;12634;50.852;5.676;2023-02-28T10:42:55;2.55;;;1.55;;
24467;SDS011;12634;50.852;5.676;2023-02-28T10:45:23;3.72;;;1.90;;
24467;SDS011;12634;50.852;5.676;2023-02-28T10:47:52;2.33;;;1.33;;
24467;SDS011;12634;50.852;5.676;2023-02-28T10:50:35;2.13;;;1.15;;
24467;SDS011;12634;50.852;5.676;2023-02-28T10:53:15;2.53;;;1.30;;
24467;SDS011;12634;50.852;5.676;2023-02-28T10:55:56;2.42;;;1.10;;
24467;SDS011;12634;50.852;5.676;2023-02-28T10:58:24;2.87;;;1.10;;
24467;SDS011;12634;50.852;5.676;2023-02-28T11:00:52;11.45;;;2.35;;
24467;SDS011;12634;50.852;5.676;2023-02-28T11:03:24;4.53;;;1.20;;
24467;SDS011;12634;50.852;5.676;2023-02-28T11:06:05;4.22;;;1.40;;
24467;SDS011;12634;50.852;5.676;2023-02-28T11:08:37;2.75;;;1.35;;
24467;SDS011;12634;50.852;5.676;2023-02-28T11:11:12;1.73;;;1.00;;
24467;SDS011;12634;50.852;5.676;2023-02-28T11:13:39;2.50;;;1.30;;
24467;SDS011;12634;50.852;5.676;2023-02-28T11:16:07;2.53;;;1.30;;
24467;SDS011;12634;50.852;5.676;2023-02-28T11:18:40;2.67;;;1.40;;
24467;SDS011;12634;50.852;5.676;2023-02-28T11:21:14;2.08;;;1.23;;
24467;SDS011;12634;50.852;5.676;2023-02-28T11:23:45;1.75;;;1.08;;
24467;SDS011;12634;50.852;5.676;2023-02-28T11:26:15;4.13;;;1.20;;
24467;SDS011;12634;50.852;5.676;2023-02-28T11:29:03;3.97;;;1.17;;
24467;SDS011;12634;50.852;5.676;2023-02-28T11:31:45;3.78;;;1.42;;
24467;SDS011;12634;50.852;5.676;2023-02-28T11:34:32;2.10;;;1.05;;
24467;SDS011;12634;50.852;5.676;2023-02-28T11:37:00;3.17;;;1.30;;
24467;SDS011;12634;50.852;5.676;2023-02-28T11:39:32;1.92;;;1.10;;
24467;SDS011;12634;50.852;5.676;2023-02-28T11:45:16;4.43;;;1.50;;
24467;SDS011;12634;50.852;5.676;2023-02-28T11:47:58;1.80;;;1.10;;
24467;SDS011;12634;50.852;5.676;2023-02-28T11:53:14;2.10;;;1.30;;
24467;SDS011;12634;50.852;5.676;2023-02-28T11:55:51;2.83;;;1.30;;
24467;SDS011;12634;50.852;5.676;2023-02-28T11:58:27;2.30;;;1.10;;
24467;SDS011;12634;50.852;5.676;2023-02-28T12:01:09;4.03;;;1.50;;
24467;SDS011;12634;50.852;5.676;2023-02-28T12:03:45;4.20;;;1.45;;
24467;SDS011;12634;50.852;5.676;2023-02-28T12:06:23;3.45;;;1.33;;
24467;SDS011;12634;50.852;5.676;2023-02-28T12:09:02;7.85;;;1.33;;
24467;SDS011;12634;50.852;5.676;2023-02-28T12:11:44;5.90;;;1.80;;
24467;SDS011;12634;50.852;5.676;2023-02-28T12:14:34;2.90;;;1.48;;
24467;SDS011;12634;50.852;5.676;2023-02-28T12:17:24;1.65;;;1.13;;
24467;SDS011;12634;50.852;5.676;2023-02-28T12:20:02;2.38;;;1.45;;
24467;SDS011;12634;50.852;5.676;2023-02-28T12:22:41;2.53;;;1.50;;
24467;SDS011;12634;50.852;5.676;2023-02-28T12:28:16;2.85;;;1.30;;
24467;SDS011;12634;50.852;5.676;2023-02-28T12:30:49;2.38;;;1.55;;
24467;SDS011;12634;50.852;5.676;2023-02-28T12:33:21;3.97;;;1.83;;
24467;SDS011;12634;50.852;5.676;2023-02-28T12:35:53;3.47;;;1.70;;
24467;SDS011;12634;50.852;5.676;2023-02-28T12:38:26;3.67;;;1.58;;
24467;SDS011;12634;50.852;5.676;2023-02-28T12:40:56;3.30;;;1.50;;
24467;SDS011;12634;50.852;5.676;2023-02-28T12:43:30;2.40;;;1.60;;
24467;SDS011;12634;50.852;5.676;2023-02-28T12:46:00;2.78;;;1.73;;
24467;SDS011;12634;50.852;5.676;2023-02-28T12:48:37;2.67;;;1.50;;
24467;SDS011;12634;50.852;5.676;2023-02-28T12:51:08;3.15;;;1.58;;
24467;SDS011;12634;50.852;5.676;2023-02-28T12:53:41;2.95;;;1.45;;
24467;SDS011;12634;50.852;5.676;2023-02-28T12:56:20;4.45;;;1.65;;
24467;SDS011;12634;50.852;5.676;2023-02-28T12:58:58;2.42;;;1.60;;
24467;SDS011;12634;50.852;5.676;2023-02-28T13:10:37;2.75;;;1.60;;
24467;SDS011;12634;50.852;5.676;2023-02-28T13:13:13;3.13;;;1.65;;
24467;SDS011;12634;50.852;5.676;2023-02-28T13:15:58;2.45;;;1.60;;
24467;SDS011;12634;50.852;5.676;2023-02-28T13:18:32;4.18;;;1.48;;
24467;SDS011;12634;50.852;5.676;2023-02-28T13:21:03;3.03;;;1.70;;
24467;SDS011;12634;50.852;5.676;2023-02-28T13:23:40;2.67;;;1.63;;
24467;SDS011;12634;50.852;5.676;2023-02-28T13:29:33;2.88;;;1.63;;
24467;SDS011;12634;50.852;5.676;2023-02-28T13:38:23;5.03;;;1.90;;
24467;SDS011;12634;50.852;5.676;2023-02-28T13:43:59;4.43;;;1.60;;
24467;SDS011;12634;50.852;5.676;2023-02-28T13:46:28;2.17;;;1.38;;
24467;SDS011;12634;50.852;5.676;2023-02-28T13:48:56;3.20;;;1.80;;
24467;SDS011;12634;50.852;5.676;2023-02-28T13:51:43;4.45;;;1.55;;
24467;SDS011;12634;50.852;5.676;2023-02-28T13:54:22;5.40;;;1.85;;
24467;SDS011;12634;50.852;5.676;2023-02-28T13:57:01;3.75;;;1.80;;
24467;SDS011;12634;50.852;5.676;2023-02-28T13:59:39;3.15;;;1.80;;
24467;SDS011;12634;50.852;5.676;2023-02-28T14:05:13;4.45;;;1.70;;
24467;SDS011;12634;50.852;5.676;2023-02-28T14:07:44;2.85;;;1.50;;
24467;SDS011;12634;50.852;5.676;2023-02-28T14:10:22;2.65;;;1.52;;
24467;SDS011;12634;50.852;5.676;2023-02-28T14:12:56;2.97;;;1.58;;
24467;SDS011;12634;50.852;5.676;2023-02-28T14:15:30;2.55;;;1.48;;
24467;SDS011;12634;50.852;5.676;2023-02-28T14:18:13;4.72;;;1.60;;
24467;SDS011;12634;50.852;5.676;2023-02-28T14:20:47;3.17;;;1.60;;
24467;SDS011;12634;50.852;5.676;2023-02-28T14:23:22;3.95;;;1.45;;
24467;SDS011;12634;50.852;5.676;2023-02-28T14:26:03;2.90;;;1.83;;
24467;SDS011;12634;50.852;5.676;2023-02-28T14:28:44;4.80;;;1.73;;
24467;SDS011;12634;50.852;5.676;2023-02-28T14:31:25;3.15;;;1.60;;
24467;SDS011;12634;50.852;5.676;2023-02-28T14:34:03;3.47;;;1.80;;
24467;SDS011;12634;50.852;5.676;2023-02-28T14:36:43;3.38;;;1.92;;
24467;SDS011;12634;50.852;5.676;2023-02-28T14:39:12;3.72;;;2.03;;
24467;SDS011;12634;50.852;5.676;2023-02-28T14:41:42;5.03;;;2.05;;
24467;SDS011;12634;50.852;5.676;2023-02-28T14:44:14;3.13;;;1.52;;
24467;SDS011;12634;50.852;5.676;2023-02-28T14:46:43;3.90;;;2.45;;
24467;SDS011;12634;50.852;5.676;2023-02-28T14:49:17;3.47;;;1.88;;
24467;SDS011;12634;50.852;5.676;2023-02-28T14:52:01;2.75;;;1.75;;
24467;SDS011;12634;50.852;5.676;2023-02-28T14:54:31;3.67;;;1.92;;
24467;SDS011;12634;50.852;5.676;2023-02-28T14:57:01;3.33;;;2.00;;
24467;SDS011;12634;50.852;5.676;2023-02-28T14:59:29;4.40;;;2.00;;
24467;SDS011;12634;50.852;5.676;2023-02-28T15:02:16;3.63;;;2.00;;
24467;SDS011;12634;50.852;5.676;2023-02-28T15:04:52;4.05;;;1.83;;
24467;SDS011;12634;50.852;5.676;2023-02-28T15:07:20;7.63;;;2.10;;
24467;SDS011;12634;50.852;5.676;2023-02-28T15:12:42;3.30;;;1.90;;
24467;SDS011;12634;50.852;5.676;2023-02-28T15:15:16;4.72;;;1.63;;
24467;SDS011;12634;50.852;5.676;2023-02-28T15:17:45;3.03;;;1.63;;
24467;SDS011;12634;50.852;5.676;2023-02-28T15:20:15;3.00;;;1.92;;
24467;SDS011;12634;50.852;5.676;2023-02-28T15:22:43;4.15;;;1.98;;
24467;SDS011;12634;50.852;5.676;2023-02-28T15:25:15;3.85;;;2.00;;
24467;SDS011;12634;50.852;5.676;2023-02-28T15:27:47;2.78;;;2.00;;
24467;SDS011;12634;50.852;5.676;2023-02-28T15:30:18;4.90;;;2.40;;
24467;SDS011;12634;50.852;5.676;2023-02-28T15:33:01;4.07;;;2.13;;
24467;SDS011;12634;50.852;5.676;2023-02-28T15:35:32;4.10;;;2.00;;
24467;SDS011;12634;50.852;5.676;2023-02-28T15:38:00;3.80;;;2.00;;
24467;SDS011;12634;50.852;5.676;2023-02-28T15:40:31;3.33;;;2.13;;
24467;SDS011;12634;50.852;5.676;2023-02-28T15:43:12;4.43;;;2.05;;
24467;SDS011;12634;50.852;5.676;2023-02-28T15:45:41;4.20;;;1.70;;
24467;SDS011;12634;50.852;5.676;2023-02-28T15:48:17;2.70;;;1.70;;
24467;SDS011;12634;50.852;5.676;2023-02-28T15:50:47;4.85;;;1.80;;
24467;SDS011;12634;50.852;5.676;2023-02-28T15:53:17;3.55;;;1.80;;
24467;SDS011;12634;50.852;5.676;2023-02-28T15:55:52;5.53;;;2.15;;
24467;SDS011;12634;50.852;5.676;2023-02-28T15:58:26;3.95;;;2.00;;
24467;SDS011;12634;50.852;5.676;2023-02-28T16:01:05;5.03;;;2.10;;